createdAt,value
2018-09-27T00:01:22.558Z,24.00
2018-09-27T00:03:51.414Z,24.00
2018-09-27T00:06:20.257Z,23.98
2018-09-27T00:08:49.061Z,23.99
2018-09-27T00:11:17.868Z,23.98
2018-09-27T00:13:47.141Z,23.98
2018-09-27T00:16:15.998Z,23.96
2018-09-27T00:18:44.889Z,23.96
2018-09-27T00:21:13.970Z,23.94
2018-09-27T00:23:42.744Z,23.94
2018-09-27T00:26:11.513Z,23.94
2018-09-27T00:28:40.331Z,23.94
2018-09-27T00:31:09.231Z,23.93
2018-09-27T00:33:38.009Z,23.92
2018-09-27T00:36:06.867Z,23.91
2018-09-27T00:38:35.688Z,23.92
2018-09-27T00:41:04.492Z,23.91
2018-09-27T00:43:33.232Z,23.91
2018-09-27T00:46:02.010Z,23.90
2018-09-27T00:48:30.798Z,23.90
2018-09-27T00:50:59.733Z,23.90
2018-09-27T00:53:28.602Z,23.89
2018-09-27T00:55:57.410Z,23.89
2018-09-27T00:58:26.229Z,23.89
2018-09-27T01:00:54.974Z,23.89
2018-09-27T01:03:23.785Z,23.89
2018-09-27T01:05:52.557Z,23.89
2018-09-27T01:08:21.355Z,23.89
2018-09-27T01:10:50.179Z,23.88
2018-09-27T01:13:18.921Z,23.88
2018-09-27T01:15:47.832Z,23.88
2018-09-27T01:18:16.612Z,23.88
2018-09-27T01:20:45.426Z,23.87
2018-09-27T01:23:14.202Z,23.87
2018-09-27T01:25:42.967Z,23.88
2018-09-27T01:28:11.712Z,23.88
2018-09-27T01:30:40.480Z,23.88
2018-09-27T01:33:09.218Z,23.88
2018-09-27T01:35:38.077Z,23.86
2018-09-27T01:38:06.954Z,23.86
2018-09-27T01:40:35.730Z,23.86
2018-09-27T01:43:04.477Z,23.86
2018-09-27T01:45:33.213Z,23.85
2018-09-27T01:48:02.074Z,23.87
2018-09-27T01:50:30.836Z,23.86
2018-09-27T01:52:59.642Z,23.85
2018-09-27T01:55:28.486Z,23.85
2018-09-27T01:57:57.299Z,23.85
2018-09-27T02:00:26.143Z,23.84
2018-09-27T02:02:54.955Z,23.85
2018-09-27T02:05:23.794Z,23.84
2018-09-27T02:07:52.625Z,23.83
2018-09-27T02:10:21.383Z,23.83
2018-09-27T02:12:50.226Z,23.83
2018-09-27T02:15:19.008Z,23.83
2018-09-27T02:17:47.756Z,23.82
2018-09-27T02:20:16.487Z,23.82
2018-09-27T02:22:45.281Z,23.81
2018-09-27T02:25:14.100Z,23.81
2018-09-27T02:27:42.909Z,23.81
2018-09-27T02:30:11.773Z,23.81
2018-09-27T02:32:40.513Z,23.80
2018-09-27T02:35:09.296Z,23.79
2018-09-27T02:37:38.090Z,23.80
2018-09-27T02:40:06.923Z,23.81
2018-09-27T02:42:35.688Z,23.79
2018-09-27T02:45:04.529Z,23.79
2018-09-27T02:47:33.435Z,23.80
2018-09-27T02:50:02.211Z,23.79
2018-09-27T02:52:31.010Z,23.79
2018-09-27T02:54:59.769Z,23.80
2018-09-27T02:57:28.620Z,23.80
2018-09-27T02:59:57.930Z,23.79
2018-09-27T03:02:26.728Z,23.79
2018-09-27T03:04:55.514Z,23.79
2018-09-27T03:07:24.283Z,23.79
2018-09-27T03:09:53.013Z,23.79
2018-09-27T03:12:21.818Z,23.78
2018-09-27T03:14:50.600Z,23.78
2018-09-27T03:17:19.382Z,23.79
2018-09-27T03:19:48.221Z,23.79
2018-09-27T03:22:17.025Z,23.78
2018-09-27T03:24:45.839Z,23.78
2018-09-27T03:27:14.624Z,23.78
2018-09-27T03:29:43.424Z,23.77
2018-09-27T03:32:12.167Z,23.76
2018-09-27T03:34:40.886Z,23.78
2018-09-27T03:37:09.688Z,23.77
2018-09-27T03:39:38.465Z,23.77
2018-09-27T03:42:07.764Z,23.77
2018-09-27T03:44:36.534Z,23.77
2018-09-27T03:47:05.281Z,23.77
2018-09-27T03:49:34.120Z,23.76
2018-09-27T03:52:03.114Z,23.75
2018-09-27T03:54:31.911Z,23.75
2018-09-27T03:57:00.763Z,23.76
2018-09-27T03:59:29.890Z,23.76
2018-09-27T04:01:58.722Z,23.74
2018-09-27T04:04:27.602Z,23.74
2018-09-27T04:06:56.465Z,23.76
2018-09-27T04:09:25.251Z,23.74
2018-09-27T04:11:54.011Z,23.74
2018-09-27T04:14:22.768Z,23.74
2018-09-27T04:16:51.553Z,23.73
2018-09-27T04:19:20.316Z,23.72
2018-09-27T04:21:49.122Z,23.73
2018-09-27T04:24:18.002Z,23.72
2018-09-27T04:26:46.826Z,23.73
2018-09-27T04:29:15.603Z,23.72
2018-09-27T04:31:44.401Z,23.71
2018-09-27T04:34:13.248Z,23.72
2018-09-27T04:36:42.000Z,23.72
2018-09-27T04:39:12.573Z,23.72
2018-09-27T04:41:41.388Z,23.72
2018-09-27T04:44:10.611Z,23.72
2018-09-27T04:46:39.704Z,23.72
2018-09-27T04:49:08.470Z,23.72
2018-09-27T04:51:37.287Z,23.73
2018-09-27T04:54:06.101Z,23.73
2018-09-27T04:56:34.876Z,23.72
2018-09-27T04:59:03.666Z,23.73
2018-09-27T05:01:32.378Z,23.73
2018-09-27T05:04:01.173Z,23.73
2018-09-27T05:06:30.023Z,23.72
2018-09-27T05:08:58.771Z,23.74
2018-09-27T05:11:27.488Z,23.74
2018-09-27T05:13:56.272Z,23.74
2018-09-27T05:16:25.018Z,23.74
2018-09-27T05:18:53.759Z,23.76
2018-09-27T05:21:22.620Z,23.77
2018-09-27T05:23:51.402Z,23.77
2018-09-27T05:26:20.108Z,23.78
2018-09-27T05:28:48.855Z,23.78
2018-09-27T05:31:17.925Z,23.78
2018-09-27T05:33:46.704Z,23.78
2018-09-27T05:36:15.433Z,23.78
2018-09-27T05:38:44.196Z,23.78
2018-09-27T05:41:12.944Z,23.78
2018-09-27T05:43:41.685Z,23.79
2018-09-27T05:46:10.527Z,23.78
2018-09-27T05:48:39.284Z,23.79
2018-09-27T05:51:08.692Z,23.78
2018-09-27T05:53:38.480Z,23.78
2018-09-27T05:56:07.249Z,23.77
2018-09-27T05:58:36.034Z,23.78
2018-09-27T06:01:05.309Z,23.78
2018-09-27T06:03:34.151Z,23.78
2018-09-27T06:06:03.146Z,23.78
2018-09-27T06:08:31.953Z,23.79
2018-09-27T06:11:01.251Z,23.79
2018-09-27T06:13:30.031Z,23.80
2018-09-27T06:15:58.824Z,23.80
2018-09-27T06:18:27.895Z,23.80
2018-09-27T06:20:56.735Z,23.80
2018-09-27T06:23:25.502Z,23.81
2018-09-27T06:25:54.867Z,23.83
2018-09-27T06:28:23.671Z,23.82
2018-09-27T06:30:52.437Z,23.83
2018-09-27T06:33:21.201Z,23.84
2018-09-27T06:35:49.954Z,23.84
2018-09-27T06:38:18.790Z,23.84
2018-09-27T06:40:47.517Z,23.85
2018-09-27T06:43:16.390Z,23.84
2018-09-27T06:45:45.157Z,23.85
2018-09-27T06:48:13.969Z,23.85
2018-09-27T06:50:43.006Z,23.86
2018-09-27T06:53:11.679Z,23.87
2018-09-27T06:55:40.723Z,23.88
2018-09-27T06:58:09.336Z,23.88
2018-09-27T07:00:38.080Z,23.88
2018-09-27T07:03:06.969Z,23.89
2018-09-27T07:05:35.750Z,23.88
2018-09-27T07:08:04.509Z,23.89
2018-09-27T07:10:33.263Z,23.89
2018-09-27T07:13:02.014Z,23.90
2018-09-27T07:15:30.827Z,23.87
2018-09-27T07:17:59.543Z,23.90
2018-09-27T07:20:28.315Z,23.91
2018-09-27T07:22:57.131Z,23.91
2018-09-27T07:25:25.906Z,23.91
2018-09-27T07:27:54.649Z,23.91
2018-09-27T07:30:23.444Z,23.91
2018-09-27T07:32:52.224Z,23.91
2018-09-27T07:35:21.058Z,23.92
2018-09-27T07:37:49.780Z,23.92
2018-09-27T07:40:18.650Z,23.92
2018-09-27T07:42:47.412Z,23.92
2018-09-27T07:45:16.158Z,23.92
2018-09-27T07:47:44.943Z,23.92
2018-09-27T07:50:13.751Z,23.93
2018-09-27T07:52:42.519Z,23.92
2018-09-27T07:55:11.258Z,23.92
2018-09-27T07:57:40.019Z,23.92
2018-09-27T08:00:08.824Z,23.92
2018-09-27T08:02:37.615Z,23.92
2018-09-27T08:05:06.577Z,23.92
2018-09-27T08:07:35.299Z,23.93
2018-09-27T08:10:04.156Z,23.93
2018-09-27T08:12:32.908Z,23.92
2018-09-27T08:15:01.673Z,23.92
2018-09-27T08:17:30.397Z,23.93
2018-09-27T08:19:59.199Z,23.92
2018-09-27T08:22:28.108Z,23.93
2018-09-27T08:24:56.882Z,23.94
2018-09-27T08:27:25.612Z,23.93
2018-09-27T08:29:54.360Z,23.94
2018-09-27T08:32:23.101Z,23.94
2018-09-27T08:34:51.926Z,23.94
2018-09-27T08:37:20.667Z,23.94
2018-09-27T08:42:17.182Z,23.97
2018-09-27T08:44:46.068Z,23.96
2018-09-27T08:47:14.894Z,23.98
2018-09-27T08:49:43.695Z,23.98
2018-09-27T08:52:12.382Z,23.97
2018-09-27T08:54:41.242Z,23.98
2018-09-27T08:57:10.076Z,23.99
2018-09-27T08:59:38.796Z,23.98
2018-09-27T09:02:07.637Z,24.00
2018-09-27T09:04:36.409Z,24.00
2018-09-27T09:07:05.135Z,24.00
2018-09-27T09:09:33.887Z,24.00
2018-09-27T09:12:02.746Z,24.00
2018-09-27T09:14:31.531Z,24.00
2018-09-27T09:17:00.264Z,24.00
2018-09-27T09:19:29.061Z,24.00
2018-09-27T09:21:57.798Z,24.00
2018-09-27T09:24:26.612Z,24.00
2018-09-27T09:26:55.374Z,24.00
2018-09-27T09:29:24.186Z,24.00
2018-09-27T09:31:52.906Z,23.98
2018-09-27T09:34:21.702Z,23.98
2018-09-27T09:36:50.537Z,23.98
2018-09-27T09:39:19.326Z,23.98
2018-09-27T09:41:48.043Z,23.98
2018-09-27T09:44:16.771Z,23.98
2018-09-27T09:46:45.583Z,23.97
2018-09-27T09:49:14.381Z,23.97
2018-09-27T09:51:43.081Z,23.97
2018-09-27T09:59:07.283Z,23.94
2018-09-27T10:04:03.668Z,23.94
2018-09-27T10:06:32.418Z,23.94
2018-09-27T10:09:01.389Z,23.93
2018-09-27T10:11:30.092Z,23.92
2018-09-27T10:13:58.836Z,23.92
2018-09-27T10:16:27.639Z,23.91
2018-09-27T10:18:56.382Z,23.91
2018-09-27T10:21:25.242Z,23.90
2018-09-27T10:23:54.088Z,23.90
2018-09-27T10:26:22.884Z,23.90
2018-09-27T10:28:51.880Z,23.90
2018-09-27T10:31:20.686Z,23.89
2018-09-27T10:33:49.438Z,23.90
2018-09-27T10:36:18.190Z,23.89
2018-09-27T10:38:46.903Z,23.88
2018-09-27T10:41:15.852Z,23.89
2018-09-27T10:43:44.535Z,23.88
2018-09-27T10:46:13.427Z,23.88
2018-09-27T10:48:42.254Z,23.88
2018-09-27T10:51:11.138Z,23.86
2018-09-27T10:53:39.985Z,23.87
2018-09-27T10:56:08.884Z,23.86
2018-09-27T10:58:38.229Z,23.87
2018-09-27T11:01:07.070Z,23.86
2018-09-27T11:03:35.782Z,23.85
2018-09-27T11:06:04.599Z,23.84
2018-09-27T11:08:33.380Z,23.84
2018-09-27T11:11:02.227Z,23.84
2018-09-27T11:13:30.915Z,23.84
2018-09-27T11:15:59.663Z,23.83
2018-09-27T11:18:28.511Z,23.83
2018-09-27T11:20:57.288Z,23.83
2018-09-27T11:23:26.037Z,23.83
2018-09-27T11:25:54.758Z,23.83
2018-09-27T11:28:23.600Z,23.82
2018-09-27T11:30:57.739Z,23.82
2018-09-27T11:33:26.576Z,23.82
2018-09-27T11:35:55.359Z,23.82
2018-09-27T11:38:24.070Z,23.81
2018-09-27T11:40:52.845Z,23.81
2018-09-27T11:43:21.605Z,23.81
2018-09-27T11:45:50.474Z,23.82
2018-09-27T11:48:19.258Z,23.82
2018-09-27T11:50:48.047Z,23.81
2018-09-27T11:53:16.755Z,23.80
2018-09-27T11:55:45.523Z,23.80
2018-09-27T11:58:14.259Z,23.80
2018-09-27T12:00:43.062Z,23.81
2018-09-27T12:03:11.866Z,23.79
2018-09-27T12:05:40.656Z,23.79
2018-09-27T12:08:09.434Z,23.79
2018-09-27T12:10:38.350Z,23.78
2018-09-27T12:13:07.136Z,23.78
2018-09-27T12:15:35.946Z,23.78
2018-09-27T12:18:04.775Z,23.78
2018-09-27T12:20:33.547Z,23.78
2018-09-27T12:23:02.445Z,23.77
2018-09-27T12:25:31.230Z,23.76
2018-09-27T12:27:59.999Z,23.77
2018-09-27T12:30:28.790Z,23.75
2018-09-27T12:32:57.556Z,23.74
2018-09-27T12:35:26.410Z,23.74
2018-09-27T12:37:55.217Z,23.75
2018-09-27T12:40:24.021Z,23.74
2018-09-27T12:42:52.876Z,23.73
2018-09-27T12:45:21.676Z,23.72
2018-09-27T12:47:50.480Z,23.72
2018-09-27T12:50:19.224Z,23.70
2018-09-27T12:52:48.064Z,23.70
2018-09-27T12:55:16.783Z,23.69
2018-09-27T12:57:45.518Z,23.70
2018-09-27T13:00:14.270Z,23.69
2018-09-27T13:02:43.108Z,23.68
2018-09-27T13:05:11.851Z,23.69
2018-09-27T13:07:40.627Z,23.68
2018-09-27T13:10:09.444Z,23.67
2018-09-27T13:12:38.395Z,23.67
2018-09-27T13:15:07.213Z,23.66
2018-09-27T13:17:35.974Z,23.66
2018-09-27T13:20:05.058Z,23.65
2018-09-27T13:22:33.725Z,23.65
2018-09-27T13:25:02.707Z,23.65
2018-09-27T13:27:31.474Z,23.65
2018-09-27T13:30:00.269Z,23.64
2018-09-27T13:32:29.080Z,23.63
2018-09-27T13:34:57.830Z,23.62
2018-09-27T13:37:26.635Z,23.62
2018-09-27T13:39:55.647Z,23.61
2018-09-27T13:42:24.391Z,23.61
2018-09-27T13:44:53.180Z,23.61
2018-09-27T13:47:21.958Z,23.60
2018-09-27T13:49:50.771Z,23.60
2018-09-27T13:52:19.529Z,23.59
2018-09-27T13:54:48.341Z,23.59
2018-09-27T13:57:17.174Z,23.59
2018-09-27T13:59:45.964Z,23.58
2018-09-27T14:02:14.760Z,23.58
2018-09-27T14:04:43.527Z,23.59
2018-09-27T14:07:12.286Z,23.59
2018-09-27T14:09:41.068Z,23.58
2018-09-27T14:12:09.880Z,23.59
2018-09-27T14:14:38.769Z,23.59
2018-09-27T14:17:07.573Z,23.59
2018-09-27T14:19:36.524Z,23.58
2018-09-27T14:22:05.414Z,23.59
2018-09-27T14:24:34.143Z,23.58
2018-09-27T14:27:02.990Z,23.57
2018-09-27T14:29:31.798Z,23.58
2018-09-27T14:32:00.604Z,23.58
2018-09-27T14:34:29.396Z,23.58
2018-09-27T14:36:58.169Z,23.56
2018-09-27T14:39:26.938Z,23.56
2018-09-27T14:41:55.729Z,23.57
2018-09-27T14:44:24.580Z,23.57
2018-09-27T14:46:53.369Z,23.57
2018-09-27T14:49:22.194Z,23.56
2018-09-27T14:51:51.019Z,23.56
2018-09-27T14:54:19.896Z,23.56
2018-09-27T14:56:48.738Z,23.55
2018-09-27T14:59:17.548Z,23.55
2018-09-27T15:01:46.327Z,23.55
2018-09-27T15:04:15.154Z,23.55
2018-09-27T15:06:44.085Z,23.54
2018-09-27T15:09:13.206Z,23.55
2018-09-27T15:11:42.077Z,23.53
2018-09-27T15:14:10.909Z,23.54
2018-09-27T15:16:39.759Z,23.52
2018-09-27T15:19:08.543Z,23.52
2018-09-27T15:21:37.328Z,23.52
2018-09-27T15:24:06.203Z,23.51
2018-09-27T15:26:35.074Z,23.50
2018-09-27T15:29:04.998Z,23.51
2018-09-27T15:31:33.807Z,23.51
2018-09-27T15:34:02.616Z,23.50
2018-09-27T15:36:31.554Z,23.50
2018-09-27T15:39:00.399Z,23.50
2018-09-27T15:41:29.551Z,23.49
2018-09-27T15:43:58.330Z,23.49
2018-09-27T15:46:27.114Z,23.48
2018-09-27T15:48:55.972Z,23.48
2018-09-27T15:51:24.810Z,23.48
2018-09-27T15:53:53.682Z,23.49
2018-09-27T15:56:22.579Z,23.48
2018-09-27T15:58:51.433Z,23.48
2018-09-27T16:01:20.234Z,23.48
2018-09-27T16:03:49.063Z,23.48
2018-09-27T16:06:18.077Z,23.47
2018-09-27T16:08:46.951Z,23.48
2018-09-27T16:11:15.871Z,23.47
2018-09-27T16:13:44.866Z,23.47
2018-09-27T16:16:13.892Z,23.47
2018-09-27T16:18:42.841Z,23.47
2018-09-27T16:21:11.875Z,23.46
2018-09-27T16:23:40.780Z,23.45
2018-09-27T16:26:09.758Z,23.46
2018-09-27T16:28:38.705Z,23.46
2018-09-27T16:31:07.815Z,23.47
2018-09-27T16:33:37.138Z,23.46
2018-09-27T16:36:06.203Z,23.47
2018-09-27T16:38:35.192Z,23.46
2018-09-27T16:41:04.164Z,23.47
2018-09-27T16:43:33.043Z,23.47
2018-09-27T16:46:01.990Z,23.48
2018-09-27T16:48:30.842Z,23.48
2018-09-27T16:50:59.677Z,23.48
2018-09-27T16:53:28.529Z,23.49
2018-09-27T16:55:57.353Z,23.49
2018-09-27T16:58:26.228Z,23.49
2018-09-27T17:00:55.100Z,23.49
2018-09-27T17:03:23.945Z,23.49
2018-09-27T17:05:52.795Z,23.51
2018-09-27T17:08:21.667Z,23.51
2018-09-27T17:10:50.541Z,23.51
2018-09-27T17:13:19.305Z,23.51
2018-09-27T17:15:48.173Z,23.51
2018-09-27T17:18:16.979Z,23.51
2018-09-27T17:20:45.791Z,23.52
2018-09-27T17:23:14.634Z,23.52
2018-09-27T17:25:43.580Z,23.52
2018-09-27T17:28:12.427Z,23.52
2018-09-27T17:30:41.338Z,23.53
2018-09-27T17:33:10.243Z,23.54
2018-09-27T17:35:39.118Z,23.55
2018-09-27T17:38:07.932Z,23.54
2018-09-27T17:40:36.820Z,23.56
2018-09-27T17:43:06.731Z,23.57
2018-09-27T17:45:35.765Z,23.58
2018-09-27T17:48:04.591Z,23.60
2018-09-27T17:50:33.531Z,23.60
2018-09-27T17:53:02.677Z,23.61
2018-09-27T17:55:31.524Z,23.62
2018-09-27T17:58:00.425Z,23.63
2018-09-27T18:00:29.399Z,23.65
2018-09-27T18:02:58.277Z,23.66
2018-09-27T18:05:27.083Z,23.67
2018-09-27T18:07:55.967Z,23.68
2018-09-27T18:10:24.911Z,23.69
2018-09-27T18:12:53.794Z,23.68
2018-09-27T18:15:22.600Z,23.70
2018-09-27T18:17:51.480Z,23.70
2018-09-27T18:20:20.242Z,23.70
2018-09-27T18:22:49.231Z,23.70
2018-09-27T18:25:18.313Z,23.70
2018-09-27T18:27:47.247Z,23.72
2018-09-27T18:30:16.713Z,23.72
2018-09-27T18:32:45.684Z,23.72
2018-09-27T18:35:14.578Z,23.72
2018-09-27T18:37:43.519Z,23.72
2018-09-27T18:40:12.422Z,23.72
2018-09-27T18:42:41.430Z,23.74
2018-09-27T18:45:10.345Z,23.73
2018-09-27T18:47:39.191Z,23.72
2018-09-27T18:50:08.336Z,23.72
2018-09-27T18:52:37.404Z,23.72
2018-09-27T18:55:06.362Z,23.72
2018-09-27T18:57:35.218Z,23.72
2018-09-27T19:00:04.466Z,23.71
2018-09-27T19:02:33.638Z,23.71
2018-09-27T19:05:02.683Z,23.71
2018-09-27T19:07:31.620Z,23.72
2018-09-27T19:10:00.510Z,23.71
2018-09-27T19:12:29.439Z,23.71
2018-09-27T19:14:58.405Z,23.70
2018-09-27T19:17:27.250Z,23.71
2018-09-27T19:19:56.215Z,23.72
2018-09-27T19:22:25.283Z,23.71
2018-09-27T19:24:54.268Z,23.71
2018-09-27T19:27:23.326Z,23.71
2018-09-27T19:29:52.328Z,23.72
2018-09-27T19:32:21.316Z,23.71
2018-09-27T19:34:50.395Z,23.71
2018-09-27T19:37:19.615Z,23.71
2018-09-27T19:39:48.762Z,23.72
2018-09-27T19:42:18.120Z,23.72
2018-09-27T19:44:47.189Z,23.72
2018-09-27T19:47:16.225Z,23.72
2018-09-27T19:49:45.212Z,23.72
2018-09-27T19:52:14.152Z,23.72
2018-09-27T19:54:42.978Z,23.72
2018-09-27T19:57:11.854Z,23.72
2018-09-27T19:59:40.662Z,23.72
2018-09-27T20:02:09.618Z,23.73
2018-09-27T20:04:38.706Z,23.72
2018-09-27T20:07:07.625Z,23.73
2018-09-27T20:09:36.477Z,23.74
2018-09-27T20:12:05.315Z,23.73
2018-09-27T20:14:34.275Z,23.72
2018-09-27T20:17:03.064Z,23.73
2018-09-27T20:19:31.840Z,23.72
2018-09-27T20:22:00.737Z,23.73
2018-09-27T20:24:29.548Z,23.72
2018-09-27T20:26:58.405Z,23.73
2018-09-27T20:29:27.327Z,23.72
2018-09-27T20:31:56.066Z,23.72
2018-09-27T20:34:25.791Z,23.72
2018-09-27T20:36:54.606Z,23.72
2018-09-27T20:39:23.381Z,23.72
2018-09-27T20:41:52.186Z,23.73
2018-09-27T20:44:21.045Z,23.72
2018-09-27T20:46:49.985Z,23.72
2018-09-27T20:49:18.938Z,23.72
2018-09-27T20:51:47.821Z,23.71
2018-09-27T20:54:16.730Z,23.71
2018-09-27T20:56:45.516Z,23.71
2018-09-27T20:59:14.288Z,23.71
2018-09-27T21:01:43.168Z,23.70
2018-09-27T21:04:12.028Z,23.71
2018-09-27T21:06:41.475Z,23.69
2018-09-27T21:09:12.246Z,23.70
2018-09-27T21:11:41.631Z,23.70
2018-09-27T21:14:10.797Z,23.69
2018-09-27T21:16:40.083Z,23.70
2018-09-27T21:19:08.920Z,23.69
2018-09-27T21:21:37.755Z,23.69
2018-09-27T21:24:06.667Z,23.68
2018-09-27T21:26:35.437Z,23.68
2018-09-27T21:29:04.529Z,23.68
2018-09-27T21:31:33.265Z,23.68
2018-09-27T21:34:02.023Z,23.67
2018-09-27T21:36:30.856Z,23.67
2018-09-27T21:38:59.722Z,23.67
2018-09-27T21:41:28.539Z,23.68
2018-09-27T21:43:57.291Z,23.68
2018-09-27T21:46:26.050Z,23.68
2018-09-27T21:48:54.788Z,23.67
2018-09-27T21:51:23.591Z,23.68
2018-09-27T21:53:52.360Z,23.68
2018-09-27T21:56:21.135Z,23.67
2018-09-27T21:58:49.856Z,23.68
2018-09-27T22:01:19.261Z,23.69
2018-09-27T22:03:48.054Z,23.69
2018-09-27T22:06:16.858Z,23.69
2018-09-27T22:08:45.656Z,23.69
2018-09-27T22:11:14.431Z,23.69
2018-09-27T22:13:43.240Z,23.68
2018-09-27T22:16:12.096Z,23.69
2018-09-27T22:18:41.002Z,23.69
2018-09-27T22:21:09.790Z,23.70
2018-09-27T22:23:38.586Z,23.68
2018-09-27T22:26:07.449Z,23.69
2018-09-27T22:28:36.241Z,23.69
2018-09-27T22:31:05.397Z,23.68
2018-09-27T22:33:34.218Z,23.68
2018-09-27T22:36:03.120Z,23.68
2018-09-27T22:38:31.873Z,23.69
2018-09-27T22:41:00.685Z,23.70
2018-09-27T22:43:29.485Z,23.69
2018-09-27T22:45:58.409Z,23.71
2018-09-27T22:48:27.193Z,23.69
2018-09-27T22:50:55.982Z,23.69
2018-09-27T22:53:24.825Z,23.69
2018-09-27T22:55:54.045Z,23.68
2018-09-27T22:58:22.856Z,23.69
2018-09-27T23:00:51.705Z,23.68
2018-09-27T23:03:20.630Z,23.68
2018-09-27T23:05:49.464Z,23.69
2018-09-27T23:08:18.231Z,23.68
2018-09-27T23:10:47.051Z,23.67
2018-09-27T23:13:15.873Z,23.66
2018-09-27T23:15:44.695Z,23.67
2018-09-27T23:18:13.497Z,23.66
2018-09-27T23:20:42.366Z,23.65
2018-09-27T23:23:11.140Z,23.65
2018-09-27T23:25:39.873Z,23.66
2018-09-27T23:28:08.749Z,23.65
2018-09-27T23:30:37.634Z,23.65
2018-09-27T23:33:06.519Z,23.65
2018-09-27T23:35:35.312Z,23.65
2018-09-27T23:38:04.951Z,23.64
2018-09-27T23:40:33.751Z,23.64
2018-09-27T23:43:02.603Z,23.65
2018-09-27T23:45:31.409Z,23.64
2018-09-27T23:48:00.196Z,23.64
2018-09-27T23:50:29.037Z,23.64
2018-09-27T23:52:58.044Z,23.65
2018-09-27T23:55:26.977Z,23.65
2018-09-27T23:57:55.854Z,23.64
